createdAt,value
2023-03-05T00:02:14.803Z,30.60
2023-03-05T00:04:42.613Z,28.70
2023-03-05T00:07:12.320Z,23.87
2023-03-05T00:12:29.093Z,26.80
2023-03-05T00:14:58.456Z,25.57
2023-03-05T00:17:26.292Z,26.93
2023-03-05T00:19:55.200Z,24.80
2023-03-05T00:22:22.933Z,26.27
2023-03-05T00:24:51.885Z,27.63
2023-03-05T00:27:20.014Z,28.63
2023-03-05T00:29:47.742Z,28.27
2023-03-05T00:32:16.906Z,29.50
2023-03-05T00:34:44.933Z,27.23
2023-03-05T00:37:13.786Z,30.27
2023-03-05T00:39:41.479Z,29.93
2023-03-05T00:51:06.208Z,29.90
2023-03-05T00:53:34.061Z,29.83
2023-03-05T00:56:01.872Z,33.10
2023-03-05T00:58:29.824Z,32.63
2023-03-05T01:00:59.933Z,32.63
2023-03-05T01:03:27.880Z,30.73
2023-03-05T01:05:55.690Z,31.07
2023-03-05T01:08:24.865Z,29.13
2023-03-05T01:10:53.096Z,30.77
2023-03-05T01:13:20.912Z,31.20
2023-03-05T01:15:50.996Z,30.53
2023-03-05T01:18:19.503Z,33.00
2023-03-05T01:20:47.445Z,30.07
2023-03-05T01:23:15.612Z,31.20
2023-03-05T01:25:44.711Z,28.40
2023-03-05T01:28:12.540Z,30.97
2023-03-05T01:30:40.276Z,29.17
2023-03-05T01:33:08.000Z,29.43
2023-03-05T01:35:35.890Z,28.27
2023-03-05T01:38:03.742Z,32.73
2023-03-05T01:40:32.142Z,32.13
2023-03-05T01:43:02.872Z,30.30
2023-03-05T01:45:32.931Z,27.20
2023-03-05T01:48:00.706Z,26.17
2023-03-05T01:50:28.751Z,26.03
2023-03-05T01:53:01.110Z,26.23
2023-03-05T01:55:30.127Z,25.03
2023-03-05T01:58:03.310Z,23.50
2023-03-05T02:00:33.447Z,27.00
2023-03-05T02:03:03.758Z,24.83
2023-03-05T02:05:33.397Z,21.23
2023-03-05T02:08:03.048Z,21.73
2023-03-05T02:10:32.766Z,23.83
2023-03-05T02:13:04.026Z,21.73
2023-03-05T02:15:33.712Z,19.60
2023-03-05T02:18:01.898Z,19.90
2023-03-05T02:20:31.679Z,23.23
2023-03-05T02:23:00.836Z,20.07
2023-03-05T02:25:30.238Z,18.03
2023-03-05T02:28:01.445Z,18.73
2023-03-05T02:30:29.660Z,18.23
2023-03-05T02:32:57.563Z,17.97
2023-03-05T02:35:25.725Z,18.27
2023-03-05T02:37:54.922Z,18.47
2023-03-05T02:40:24.369Z,18.80
2023-03-05T02:42:52.321Z,19.47
2023-03-05T02:45:20.350Z,17.00
2023-03-05T02:47:48.109Z,16.27
2023-03-05T02:50:15.899Z,16.90
2023-03-05T02:52:43.691Z,17.40
2023-03-05T02:55:11.670Z,17.40
2023-03-05T02:57:40.779Z,18.83
2023-03-05T03:00:09.923Z,21.90
2023-03-05T03:02:37.641Z,18.93
2023-03-05T03:05:06.317Z,18.33
2023-03-05T03:07:35.896Z,17.37
2023-03-05T03:10:03.651Z,18.13
2023-03-05T03:12:31.352Z,15.93
2023-03-05T03:15:02.276Z,16.10
2023-03-05T03:17:30.067Z,14.50
2023-03-05T03:19:57.818Z,16.23
2023-03-05T03:22:25.514Z,13.70
2023-03-05T03:24:53.165Z,15.57
2023-03-05T03:27:20.918Z,15.33
2023-03-05T03:29:48.649Z,16.20
2023-03-05T03:32:17.877Z,14.07
2023-03-05T03:34:45.787Z,14.90
2023-03-05T03:37:13.515Z,14.63
2023-03-05T03:39:41.293Z,15.10
2023-03-05T03:42:09.166Z,14.67
2023-03-05T03:44:36.940Z,16.67
2023-03-05T03:47:05.001Z,16.07
2023-03-05T03:49:34.254Z,16.13
2023-03-05T03:52:02.330Z,14.57
2023-03-05T03:54:30.117Z,15.80
2023-03-05T03:56:57.901Z,15.53
2023-03-05T03:59:25.678Z,13.70
2023-03-05T04:01:53.463Z,17.20
2023-03-05T04:04:21.322Z,16.40
2023-03-05T04:06:50.476Z,15.63
2023-03-05T04:09:18.414Z,13.37
2023-03-05T04:11:46.207Z,12.77
2023-03-05T04:14:14.010Z,13.70
2023-03-05T04:16:41.774Z,12.67
2023-03-05T04:19:09.512Z,14.00
2023-03-05T04:21:37.296Z,11.73
2023-03-05T04:24:08.297Z,13.70
2023-03-05T04:26:36.367Z,12.50
2023-03-05T04:29:04.153Z,12.63
2023-03-05T04:31:31.870Z,11.57
2023-03-05T04:34:01.713Z,10.40
2023-03-05T04:36:29.418Z,10.57
2023-03-05T04:38:57.183Z,10.87
2023-03-05T04:41:26.299Z,13.00
2023-03-05T04:43:54.109Z,10.63
2023-03-05T04:46:21.876Z,10.97
2023-03-05T04:48:49.702Z,9.83
2023-03-05T04:51:17.413Z,10.77
2023-03-05T04:53:45.144Z,10.20
2023-03-05T04:56:12.892Z,8.90
2023-03-05T04:58:42.080Z,8.67
2023-03-05T05:01:09.932Z,9.27
2023-03-05T05:03:37.656Z,9.77
2023-03-05T05:06:05.753Z,10.17
2023-03-05T05:08:33.575Z,9.10
2023-03-05T05:11:03.437Z,8.80
2023-03-05T05:13:32.078Z,8.33
2023-03-05T05:16:01.669Z,8.03
2023-03-05T05:18:29.465Z,7.60
2023-03-05T05:20:57.274Z,8.47
2023-03-05T05:23:25.066Z,8.80
2023-03-05T05:25:59.924Z,8.00
2023-03-05T05:28:27.875Z,7.40
2023-03-05T05:30:55.959Z,7.83
2023-03-05T05:33:25.538Z,7.97
2023-03-05T05:35:53.342Z,7.30
2023-03-05T05:38:21.802Z,6.77
2023-03-05T05:40:49.602Z,7.67
2023-03-05T05:43:17.392Z,5.83
2023-03-05T05:45:45.274Z,6.63
2023-03-05T05:48:13.206Z,7.57
2023-03-05T05:50:42.269Z,7.23
2023-03-05T05:53:10.039Z,7.43
2023-03-05T05:55:41.067Z,6.77
2023-03-05T05:58:08.896Z,6.77
2023-03-05T06:00:36.688Z,8.97
2023-03-05T06:03:05.219Z,6.67
2023-03-05T06:05:33.028Z,7.83
2023-03-05T06:08:02.186Z,6.70
2023-03-05T06:10:30.095Z,6.03
2023-03-05T06:12:57.811Z,6.40
2023-03-05T06:15:25.637Z,6.93
2023-03-05T06:17:54.522Z,7.07
2023-03-05T06:20:23.216Z,5.57
2023-03-05T06:22:51.023Z,8.50
2023-03-05T06:25:20.332Z,7.10
2023-03-05T06:27:48.138Z,8.20
2023-03-05T06:30:16.149Z,6.57
2023-03-05T06:32:43.887Z,7.17
2023-03-05T06:35:11.954Z,7.23
2023-03-05T06:37:39.716Z,6.87
2023-03-05T06:40:08.974Z,7.63
2023-03-05T06:42:38.110Z,5.90
2023-03-05T06:45:07.485Z,7.23
2023-03-05T06:47:35.304Z,6.83
2023-03-05T06:50:03.030Z,6.30
2023-03-05T06:52:30.819Z,5.97
2023-03-05T06:54:58.561Z,6.40
2023-03-05T06:57:26.347Z,5.80
2023-03-05T06:59:55.732Z,5.23
2023-03-05T07:02:23.468Z,6.50
2023-03-05T07:04:51.288Z,8.40
2023-03-05T07:07:18.992Z,8.97
2023-03-05T07:09:50.206Z,6.63
2023-03-05T07:12:18.110Z,7.30
2023-03-05T07:14:45.996Z,6.33
2023-03-05T07:17:15.834Z,8.37
2023-03-05T07:19:43.834Z,7.80
2023-03-05T07:22:12.214Z,8.50
2023-03-05T07:24:40.033Z,8.00
2023-03-05T07:27:07.822Z,6.40
2023-03-05T07:29:35.605Z,6.80
2023-03-05T07:32:03.378Z,6.60
2023-03-05T07:34:34.924Z,7.33
2023-03-05T07:37:02.979Z,6.97
2023-03-05T07:39:31.216Z,5.90
2023-03-05T07:41:59.443Z,8.00
2023-03-05T07:44:27.275Z,7.63
2023-03-05T07:46:55.273Z,8.67
2023-03-05T07:49:23.944Z,7.43
2023-03-05T07:51:56.070Z,8.87
2023-03-05T07:54:23.895Z,11.00
2023-03-05T07:56:51.629Z,8.17
2023-03-05T07:59:19.405Z,8.67
2023-03-05T08:01:47.302Z,9.63
2023-03-05T08:04:15.168Z,9.00
2023-03-05T08:06:43.466Z,7.17
2023-03-05T08:09:12.585Z,7.90
2023-03-05T08:11:40.745Z,9.27
2023-03-05T08:14:08.530Z,9.30
2023-03-05T08:16:36.493Z,9.97
2023-03-05T08:19:04.308Z,9.40
2023-03-05T08:21:33.967Z,12.50
2023-03-05T08:24:03.630Z,8.20
2023-03-05T08:26:33.913Z,8.57
2023-03-05T08:29:02.473Z,10.00
2023-03-05T08:31:31.189Z,8.93
2023-03-05T08:34:00.177Z,11.83
2023-03-05T08:36:28.011Z,10.60
2023-03-05T08:38:56.030Z,10.30
2023-03-05T08:41:24.473Z,11.23
2023-03-05T08:43:53.684Z,10.17
2023-03-05T08:46:21.536Z,13.27
2023-03-05T08:48:49.610Z,9.13
2023-03-05T08:51:19.700Z,12.60
2023-03-05T08:53:48.023Z,10.43
2023-03-05T08:56:16.417Z,9.23
2023-03-05T08:58:44.578Z,9.93
2023-03-05T09:01:14.011Z,10.77
2023-03-05T09:03:42.232Z,9.27
2023-03-05T09:06:12.236Z,10.53
2023-03-05T09:08:40.715Z,9.07
2023-03-05T09:11:10.430Z,9.40
2023-03-05T09:13:38.321Z,9.70
2023-03-05T09:16:08.947Z,10.13
2023-03-05T09:18:40.229Z,9.63
2023-03-05T09:21:08.663Z,11.87
2023-03-05T09:23:36.716Z,9.23
2023-03-05T09:26:07.151Z,10.50
2023-03-05T09:28:34.954Z,11.10
2023-03-05T09:31:03.851Z,9.53
2023-03-05T09:33:32.186Z,10.97
2023-03-05T09:36:01.779Z,8.83
2023-03-05T09:38:30.019Z,9.27
2023-03-05T09:41:03.247Z,11.77
2023-03-05T09:43:39.328Z,9.60
2023-03-05T09:46:17.184Z,10.47
2023-03-05T09:48:51.732Z,9.70
2023-03-05T09:51:24.494Z,11.47
2023-03-05T09:54:01.688Z,10.63
2023-03-05T09:56:32.633Z,9.70
2023-03-05T09:59:04.209Z,11.27
2023-03-05T10:01:38.808Z,10.20
2023-03-05T10:04:12.352Z,10.73
2023-03-05T10:06:50.292Z,10.80
2023-03-05T10:09:23.496Z,11.83
2023-03-05T10:11:55.050Z,10.83
2023-03-05T10:14:28.229Z,9.13
2023-03-05T10:17:30.058Z,9.73
2023-03-05T10:20:27.505Z,8.90
2023-03-05T10:23:16.096Z,9.60
2023-03-05T10:25:54.045Z,9.43
2023-03-05T10:28:23.780Z,8.50
2023-03-05T10:31:02.918Z,10.37
2023-03-05T10:33:36.087Z,9.03
2023-03-05T10:36:25.380Z,8.90
2023-03-05T10:39:23.612Z,8.87
2023-03-05T10:42:02.336Z,8.57
2023-03-05T10:44:35.401Z,9.27
2023-03-05T10:47:04.289Z,7.80
2023-03-05T10:49:34.730Z,8.50
2023-03-05T10:52:13.822Z,8.87
2023-03-05T10:54:43.835Z,9.00
2023-03-05T10:57:18.116Z,10.53
2023-03-05T10:59:49.622Z,9.87
2023-03-05T11:02:18.177Z,8.70
2023-03-05T11:04:47.211Z,10.97
2023-03-05T11:07:30.905Z,10.53
2023-03-05T11:10:15.164Z,10.73
2023-03-05T11:12:43.022Z,8.00
2023-03-05T11:15:27.626Z,8.17
2023-03-05T11:18:21.253Z,7.40
2023-03-05T11:20:49.556Z,7.90
2023-03-05T11:23:19.245Z,9.50
2023-03-05T11:25:58.550Z,8.40
2023-03-05T11:28:33.267Z,10.97
2023-03-05T11:31:05.588Z,8.13
2023-03-05T11:33:33.398Z,7.80
2023-03-05T11:36:23.123Z,7.53
2023-03-05T11:38:58.030Z,7.70
2023-03-05T11:41:31.111Z,10.67
2023-03-05T11:44:00.729Z,6.77
2023-03-05T11:46:29.175Z,7.57
2023-03-05T11:48:57.640Z,9.40
2023-03-05T11:51:30.250Z,9.53
2023-03-05T11:54:01.380Z,8.10
2023-03-05T11:56:33.126Z,9.53
2023-03-05T12:09:53.213Z,10.43
2023-03-05T12:12:36.191Z,9.47
2023-03-05T12:15:20.211Z,9.80
2023-03-05T12:17:51.841Z,9.27
2023-03-05T12:20:23.298Z,8.13
2023-03-05T12:22:51.786Z,9.87
2023-03-05T12:25:28.022Z,8.13
2023-03-05T12:27:57.183Z,9.17
2023-03-05T12:30:54.978Z,9.77
2023-03-05T12:33:37.994Z,9.70
2023-03-05T12:36:39.787Z,11.43
2023-03-05T12:39:44.033Z,11.20
2023-03-05T12:42:45.370Z,10.50
2023-03-05T12:45:31.777Z,11.57
2023-03-05T12:48:37.050Z,10.30
2023-03-05T12:51:06.538Z,12.97
2023-03-05T12:53:34.964Z,10.40
2023-03-05T12:56:07.160Z,9.60
2023-03-05T12:58:39.853Z,10.07
2023-03-05T13:01:18.235Z,10.90
2023-03-05T13:03:48.411Z,11.80
2023-03-05T13:06:26.500Z,10.70
2023-03-05T13:08:59.031Z,9.93
2023-03-05T13:11:27.209Z,9.07
2023-03-05T13:13:57.376Z,9.87
2023-03-05T13:16:33.347Z,9.50
2023-03-05T13:19:10.458Z,9.60
2023-03-05T13:21:41.445Z,9.43
2023-03-05T13:24:18.471Z,9.97
2023-03-05T13:26:46.875Z,9.67
2023-03-05T13:29:17.235Z,12.53
2023-03-05T13:31:47.368Z,9.00
2023-03-05T13:34:18.431Z,11.00
2023-03-05T13:36:48.516Z,10.17
2023-03-05T13:39:30.481Z,10.47
2023-03-05T13:59:39.019Z,9.10
2023-03-05T14:02:17.335Z,7.77
2023-03-05T14:04:46.394Z,6.07
2023-03-05T14:07:29.197Z,6.60
2023-03-05T14:09:57.301Z,8.87
2023-03-05T14:12:43.949Z,6.07
2023-03-05T14:15:23.848Z,6.67
2023-03-05T14:17:52.202Z,6.47
2023-03-05T14:20:24.146Z,7.20
2023-03-05T14:22:53.493Z,7.43
2023-03-05T14:25:33.840Z,9.43
2023-03-05T14:28:02.781Z,7.93
2023-03-05T14:30:32.827Z,10.37
2023-03-05T14:33:01.849Z,12.43
2023-03-05T14:35:30.324Z,12.73
2023-03-05T14:37:59.549Z,10.83
2023-03-05T14:40:31.453Z,13.47
2023-03-05T14:43:00.256Z,13.33
2023-03-05T14:45:30.042Z,13.77
2023-03-05T14:48:00.947Z,12.90
2023-03-05T14:53:17.371Z,14.47
2023-03-05T14:55:48.862Z,13.13
2023-03-05T14:58:18.854Z,14.93
2023-03-05T15:00:50.075Z,14.90
2023-03-05T15:03:20.870Z,13.83
2023-03-05T15:05:50.120Z,12.63
2023-03-05T15:08:19.279Z,15.17
2023-03-05T15:10:47.415Z,19.27
2023-03-05T15:13:15.853Z,22.40
2023-03-05T15:15:44.658Z,25.17
2023-03-05T15:18:14.227Z,23.47
2023-03-05T15:20:43.621Z,23.10
2023-03-05T15:23:12.736Z,24.80
2023-03-05T15:25:40.707Z,28.83
2023-03-05T15:28:08.725Z,27.33
2023-03-05T15:30:41.017Z,26.30
2023-03-05T15:33:10.439Z,28.30
2023-03-05T15:35:38.262Z,27.60
2023-03-05T15:38:07.398Z,28.30
2023-03-05T15:40:35.189Z,29.07
2023-03-05T15:43:02.996Z,32.20
2023-03-05T15:45:31.706Z,31.57
2023-03-05T15:47:59.919Z,32.60
2023-03-05T15:50:27.842Z,33.10
2023-03-05T15:52:55.660Z,33.40
2023-03-05T15:55:24.797Z,33.07
2023-03-05T15:57:53.432Z,31.43
2023-03-05T16:00:25.751Z,32.07
2023-03-05T16:02:53.916Z,31.73
2023-03-05T16:05:21.730Z,32.10
2023-03-05T16:07:51.798Z,33.00
2023-03-05T16:10:26.773Z,31.03
2023-03-05T16:12:57.731Z,31.90
2023-03-05T16:15:25.791Z,33.03
2023-03-05T16:17:55.351Z,32.40
2023-03-05T16:20:23.537Z,30.07
2023-03-05T16:22:51.339Z,31.37
2023-03-05T16:25:19.412Z,33.10
2023-03-05T16:27:48.545Z,33.40
2023-03-05T16:30:17.633Z,37.87
2023-03-05T16:32:45.487Z,35.77
2023-03-05T16:35:13.425Z,38.37
2023-03-05T16:37:41.871Z,38.73
2023-03-05T16:40:12.306Z,38.93
2023-03-05T16:42:40.298Z,38.40
2023-03-05T16:45:11.282Z,39.87
2023-03-05T16:47:39.619Z,41.73
2023-03-05T16:50:09.042Z,41.23
2023-03-05T16:55:17.566Z,43.50
2023-03-05T16:57:45.379Z,47.07
2023-03-05T17:00:17.079Z,45.97
2023-03-05T17:02:45.672Z,45.53
2023-03-05T17:05:13.646Z,43.57
2023-03-05T17:07:41.431Z,44.60
2023-03-05T17:10:12.293Z,46.73
2023-03-05T17:12:40.171Z,46.37
2023-03-05T17:15:10.320Z,45.93
2023-03-05T17:17:40.586Z,44.50
2023-03-05T17:20:10.048Z,44.60
2023-03-05T17:22:37.750Z,45.43
2023-03-05T17:25:08.585Z,49.80
2023-03-05T17:27:37.297Z,49.30
2023-03-05T17:30:05.787Z,53.40
2023-03-05T17:32:33.558Z,50.90
2023-03-05T17:35:05.396Z,51.43
2023-03-05T17:37:33.546Z,53.33
2023-03-05T17:40:01.415Z,48.97
2023-03-05T17:42:29.185Z,49.33
2023-03-05T17:44:59.190Z,49.57
2023-03-05T17:47:26.952Z,48.57
2023-03-05T17:49:54.706Z,48.30
2023-03-05T17:52:24.309Z,47.10
2023-03-05T17:54:53.108Z,48.50
2023-03-05T17:57:21.593Z,46.17
2023-03-05T17:59:49.559Z,43.33
2023-03-05T18:02:17.340Z,46.60
2023-03-05T18:04:47.242Z,50.53
2023-03-05T18:07:15.152Z,48.73
2023-03-05T18:09:44.290Z,48.73
2023-03-05T18:12:12.051Z,53.13
2023-03-05T18:14:40.059Z,48.83
2023-03-05T18:17:07.929Z,48.17
2023-03-05T18:19:35.706Z,47.80
2023-03-05T18:22:03.531Z,50.70
2023-03-05T18:24:31.303Z,58.00
2023-03-05T18:27:00.504Z,54.27
2023-03-05T18:29:29.102Z,56.03
2023-03-05T18:31:56.947Z,55.33
2023-03-05T18:34:25.761Z,57.60
2023-03-05T18:36:54.267Z,55.73
2023-03-05T18:39:22.107Z,54.73
2023-03-05T18:41:50.074Z,53.90
2023-03-05T18:44:20.771Z,51.53
2023-03-05T18:46:49.100Z,50.63
2023-03-05T18:49:17.110Z,46.43
2023-03-05T18:51:48.634Z,46.33
2023-03-05T18:54:16.492Z,46.00
2023-03-05T18:56:44.212Z,46.20
2023-03-05T18:59:12.503Z,48.07
2023-03-05T19:01:41.851Z,47.57
2023-03-05T19:04:10.142Z,47.00
2023-03-05T19:06:38.408Z,48.20
2023-03-05T19:10:03.580Z,45.67
2023-03-05T19:12:32.910Z,45.57
2023-03-05T19:15:00.778Z,41.90
2023-03-05T19:17:30.197Z,40.80
2023-03-05T19:19:59.629Z,45.80
2023-03-05T19:22:29.498Z,43.77
2023-03-05T19:24:57.354Z,43.63
2023-03-05T19:27:25.054Z,44.23
2023-03-05T19:29:53.484Z,45.90
2023-03-05T19:32:21.837Z,45.53
2023-03-05T19:34:51.537Z,48.07
2023-03-05T19:37:19.241Z,43.03
2023-03-05T19:39:46.967Z,44.17
2023-03-05T19:42:15.063Z,46.40
2023-03-05T19:44:43.093Z,44.97
2023-03-05T19:47:11.158Z,40.10
2023-03-05T19:49:39.007Z,39.33
2023-03-05T19:52:08.323Z,37.53
2023-03-05T19:54:36.542Z,40.07
2023-03-05T19:57:04.424Z,38.73
2023-03-05T19:59:32.230Z,43.00
2023-03-05T20:02:00.369Z,42.03
2023-03-05T20:04:28.396Z,42.80
2023-03-05T20:06:56.161Z,43.00
2023-03-05T20:09:25.578Z,44.50
2023-03-05T20:11:53.370Z,48.07
2023-03-05T20:14:22.699Z,46.83
2023-03-05T20:16:50.699Z,45.23
2023-03-05T20:19:20.257Z,49.27
2023-03-05T20:21:48.456Z,47.43
2023-03-05T20:24:19.690Z,45.70
2023-03-05T20:26:49.227Z,50.47
2023-03-05T20:29:18.330Z,50.43
2023-03-05T20:31:46.682Z,43.07
2023-03-05T20:34:15.514Z,43.60
2023-03-05T20:36:43.367Z,43.67
2023-03-05T20:39:11.315Z,44.33
2023-03-05T20:41:40.650Z,45.03
2023-03-05T20:44:11.416Z,45.40
2023-03-05T20:47:30.037Z,44.00
2023-03-05T20:49:57.847Z,41.30
2023-03-05T20:52:25.733Z,43.80
2023-03-05T20:54:53.580Z,40.73
2023-03-05T20:57:21.493Z,43.50
2023-03-05T20:59:50.652Z,42.47
2023-03-05T21:02:18.851Z,42.10
2023-03-05T21:04:46.839Z,41.50
2023-03-05T21:07:14.731Z,38.23
2023-03-05T21:09:42.514Z,39.67
2023-03-05T21:12:10.467Z,36.03
2023-03-05T21:14:40.647Z,38.93
2023-03-05T21:17:09.950Z,35.33
2023-03-05T21:19:38.770Z,36.43
2023-03-05T21:22:06.663Z,35.80
2023-03-05T21:25:21.929Z,33.73
2023-03-05T21:27:51.693Z,33.70
2023-03-05T21:30:20.256Z,34.57
2023-03-05T21:32:49.896Z,32.83
2023-03-05T21:35:19.362Z,36.53
2023-03-05T21:37:47.260Z,33.70
2023-03-05T21:40:16.997Z,32.70
2023-03-05T21:42:46.279Z,31.73
2023-03-05T21:45:15.517Z,35.60
2023-03-05T21:47:43.420Z,35.73
2023-03-05T21:50:13.773Z,33.70
2023-03-05T21:52:41.833Z,32.33
2023-03-05T21:55:12.852Z,30.37
2023-03-05T21:57:40.684Z,33.40
2023-03-05T22:00:10.755Z,33.03
2023-03-05T22:02:38.813Z,32.27
2023-03-05T22:05:07.939Z,29.97
2023-03-05T22:07:37.107Z,28.47
2023-03-05T22:10:05.196Z,31.27
2023-03-05T22:13:12.418Z,30.23
2023-03-05T22:15:44.953Z,29.77
2023-03-05T22:18:12.813Z,28.57
2023-03-05T22:20:40.678Z,29.10
2023-03-05T22:23:09.809Z,31.40
2023-03-05T22:25:37.498Z,29.60
2023-03-05T22:28:05.864Z,30.63
2023-03-05T22:30:33.750Z,29.83
2023-03-05T22:33:02.686Z,27.60
2023-03-05T22:35:30.462Z,28.57
2023-03-05T22:37:59.170Z,26.77
2023-03-05T22:40:28.425Z,30.10
2023-03-05T22:42:56.609Z,27.50
2023-03-05T22:45:24.464Z,29.63
2023-03-05T22:47:52.438Z,27.73
2023-03-05T22:50:20.349Z,29.70
2023-03-05T22:52:48.181Z,27.97
2023-03-05T22:55:17.490Z,27.37
2023-03-05T22:57:46.841Z,27.57
2023-03-05T23:00:16.437Z,27.23
2023-03-05T23:02:45.448Z,28.37
2023-03-05T23:05:13.336Z,27.07
2023-03-05T23:07:42.519Z,27.37
2023-03-05T23:10:12.553Z,29.17
2023-03-05T23:12:44.012Z,26.30
2023-03-05T23:15:15.188Z,26.53
2023-03-05T23:17:43.083Z,25.30
2023-03-05T23:20:14.394Z,25.70
2023-03-05T23:22:42.220Z,24.73
2023-03-05T23:25:10.553Z,27.23
2023-03-05T23:27:38.349Z,25.10
2023-03-05T23:30:19.465Z,26.77
2023-03-05T23:32:50.004Z,24.93
2023-03-05T23:35:19.945Z,26.93
2023-03-05T23:37:48.560Z,24.53
2023-03-05T23:40:18.328Z,27.07
2023-03-05T23:42:46.346Z,24.87
2023-03-05T23:45:17.376Z,29.07
2023-03-05T23:47:46.056Z,25.43
2023-03-05T23:50:16.411Z,32.50
2023-03-05T23:52:44.425Z,35.07
2023-03-05T23:55:17.000Z,30.80
2023-03-05T23:57:45.117Z,31.67
